createdAt,value
2023-01-09T00:00:54.612Z,10.57
2023-01-09T00:04:00.270Z,10.60
2023-01-09T00:07:08.069Z,11.18
2023-01-09T00:10:15.770Z,11.73
2023-01-09T00:16:26.870Z,11.70
2023-01-09T00:19:32.091Z,11.00
2023-01-09T00:22:39.970Z,10.80
2023-01-09T00:25:45.363Z,11.52
2023-01-09T00:28:51.486Z,11.02
2023-01-09T00:31:56.815Z,10.35
2023-01-09T00:35:02.210Z,11.38
2023-01-09T00:38:10.487Z,9.82
2023-01-09T00:41:19.757Z,10.23
2023-01-09T00:44:26.371Z,9.48
2023-01-09T00:47:32.801Z,9.05
2023-01-09T00:50:38.569Z,11.43
2023-01-09T00:53:46.773Z,9.63
2023-01-09T00:56:53.154Z,10.40
2023-01-09T00:59:58.490Z,11.45
2023-01-09T01:03:03.824Z,9.45
2023-01-09T01:06:21.878Z,10.38
2023-01-09T01:09:32.769Z,9.82
2023-01-09T01:15:43.465Z,10.40
2023-01-09T01:18:49.169Z,9.20
2023-01-09T01:21:54.592Z,10.65
2023-01-09T01:25:02.915Z,9.23
2023-01-09T01:28:09.107Z,9.63
2023-01-09T01:31:19.354Z,9.70
2023-01-09T01:34:24.707Z,10.10
2023-01-09T01:37:30.269Z,9.75
2023-01-09T01:40:38.535Z,9.77
2023-01-09T01:43:53.497Z,9.60
2023-01-09T01:47:00.097Z,9.57
2023-01-09T01:50:06.647Z,9.70
2023-01-09T01:53:14.018Z,9.13
2023-01-09T01:56:24.720Z,10.45
2023-01-09T01:59:32.292Z,10.27
2023-01-09T02:02:37.539Z,9.63
2023-01-09T02:05:42.960Z,9.55
2023-01-09T02:08:48.775Z,10.50
2023-01-09T02:12:01.079Z,11.93
2023-01-09T02:15:07.343Z,11.52
2023-01-09T02:18:28.595Z,10.85
2023-01-09T02:21:40.158Z,10.38
2023-01-09T02:24:57.958Z,11.95
2023-01-09T02:28:15.987Z,11.73
2023-01-09T02:31:25.600Z,13.13
2023-01-09T02:34:35.562Z,12.65
2023-01-09T02:37:47.171Z,12.95
2023-01-09T02:40:56.882Z,12.90
2023-01-09T02:44:20.096Z,13.57
2023-01-09T02:47:42.151Z,13.80
2023-01-09T02:50:51.135Z,11.85
2023-01-09T02:54:06.437Z,11.93
2023-01-09T02:57:18.110Z,11.88
2023-01-09T03:00:28.685Z,11.85
2023-01-09T03:03:41.299Z,12.30
2023-01-09T03:06:49.776Z,12.65
2023-01-09T03:09:58.631Z,12.25
2023-01-09T03:13:04.818Z,12.20
2023-01-09T03:16:12.160Z,11.27
2023-01-09T03:19:22.401Z,11.90
2023-01-09T03:22:28.268Z,9.77
2023-01-09T03:25:34.378Z,10.68
2023-01-09T03:28:39.811Z,10.52
2023-01-09T03:31:45.228Z,9.70
2023-01-09T03:34:53.243Z,9.93
2023-01-09T03:37:59.519Z,9.85
2023-01-09T03:41:04.736Z,9.90
2023-01-09T03:44:10.199Z,11.02
2023-01-09T03:47:15.505Z,10.07
2023-01-09T03:50:23.961Z,9.85
2023-01-09T03:53:29.995Z,10.27
2023-01-09T03:56:35.628Z,9.93
2023-01-09T03:59:41.529Z,9.95
2023-01-09T04:02:47.139Z,8.43
2023-01-09T04:05:55.466Z,8.88
2023-01-09T04:09:01.021Z,9.88
2023-01-09T04:12:06.280Z,8.77
2023-01-09T04:15:12.555Z,9.27
2023-01-09T04:18:18.031Z,8.68
2023-01-09T04:21:26.226Z,10.00
2023-01-09T04:24:32.630Z,8.98
2023-01-09T04:27:38.579Z,9.35
2023-01-09T04:30:44.053Z,7.88
2023-01-09T04:33:49.607Z,7.70
2023-01-09T04:36:59.169Z,9.32
2023-01-09T04:40:06.597Z,8.65
2023-01-09T04:43:11.726Z,9.20
2023-01-09T04:46:17.183Z,8.27
2023-01-09T04:49:22.622Z,7.78
2023-01-09T04:52:31.430Z,8.05
2023-01-09T04:55:37.037Z,8.38
2023-01-09T04:58:42.267Z,8.07
2023-01-09T05:01:47.506Z,8.75
2023-01-09T05:04:53.077Z,7.88
2023-01-09T05:08:00.782Z,9.50
2023-01-09T05:11:06.216Z,9.85
2023-01-09T05:14:13.139Z,9.25
2023-01-09T05:17:18.518Z,9.00
2023-01-09T05:20:23.591Z,10.02
2023-01-09T05:23:31.696Z,8.98
2023-01-09T05:26:37.023Z,9.43
2023-01-09T05:29:42.438Z,8.85
2023-01-09T05:32:47.879Z,8.57
2023-01-09T05:35:53.177Z,7.80
2023-01-09T05:39:02.817Z,9.60
2023-01-09T05:42:08.673Z,9.52
2023-01-09T05:45:14.593Z,9.23
2023-01-09T05:48:20.451Z,8.30
2023-01-09T05:51:25.623Z,9.35
2023-01-09T05:54:34.088Z,10.13
2023-01-09T05:57:39.489Z,9.02
2023-01-09T06:00:44.781Z,9.52
2023-01-09T06:03:50.415Z,9.90
2023-01-09T06:06:56.490Z,9.45
2023-01-09T06:10:04.885Z,10.00
2023-01-09T06:13:10.316Z,9.65
2023-01-09T06:16:16.443Z,9.65
2023-01-09T06:19:22.043Z,10.25
2023-01-09T06:22:27.200Z,9.95
2023-01-09T06:25:35.691Z,9.88
2023-01-09T06:28:40.931Z,9.70
2023-01-09T06:31:46.417Z,10.05
2023-01-09T06:34:51.945Z,9.05
2023-01-09T06:37:57.827Z,10.30
2023-01-09T06:41:05.843Z,10.55
2023-01-09T06:44:11.436Z,10.32
2023-01-09T06:47:17.160Z,9.80
2023-01-09T06:50:22.508Z,9.10
2023-01-09T06:53:28.421Z,9.77
2023-01-09T06:56:36.616Z,9.48
2023-01-09T06:59:42.119Z,9.10
2023-01-09T07:02:47.440Z,8.90
2023-01-09T07:05:52.781Z,10.38
2023-01-09T07:08:58.122Z,9.38
2023-01-09T07:12:06.029Z,8.70
2023-01-09T07:18:16.918Z,8.65
2023-01-09T07:21:22.376Z,7.90
2023-01-09T07:24:27.869Z,7.35
2023-01-09T07:27:36.063Z,7.78
2023-01-09T07:30:41.815Z,8.20
2023-01-09T07:33:46.867Z,7.15
2023-01-09T07:36:52.306Z,7.70
2023-01-09T07:39:57.723Z,6.60
2023-01-09T07:43:05.501Z,6.03
2023-01-09T07:46:10.568Z,7.43
2023-01-09T07:49:16.199Z,6.25
2023-01-09T07:52:21.510Z,7.05
2023-01-09T07:55:26.844Z,7.45
2023-01-09T07:58:34.787Z,7.93
2023-01-09T08:01:40.453Z,7.65
2023-01-09T08:04:45.898Z,8.82
2023-01-09T08:07:51.930Z,7.30
2023-01-09T08:10:57.422Z,7.38
2023-01-09T08:14:05.555Z,7.07
2023-01-09T08:17:11.999Z,7.03
2023-01-09T08:20:18.096Z,6.95
2023-01-09T08:23:23.800Z,7.45
2023-01-09T08:26:29.213Z,6.57
2023-01-09T08:29:37.360Z,7.57
2023-01-09T08:32:42.823Z,6.97
2023-01-09T08:35:48.247Z,7.60
2023-01-09T08:38:53.590Z,7.30
2023-01-09T08:42:11.213Z,7.65
2023-01-09T08:45:32.016Z,6.45
2023-01-09T08:48:37.202Z,8.15
2023-01-09T08:51:42.861Z,7.50
2023-01-09T08:54:48.259Z,6.95
2023-01-09T08:57:54.162Z,6.90
2023-01-09T09:01:02.129Z,7.88
2023-01-09T09:04:07.787Z,8.50
2023-01-09T09:07:13.338Z,7.70
2023-01-09T09:10:18.897Z,7.82
2023-01-09T09:13:24.490Z,7.25
2023-01-09T09:16:32.526Z,7.97
2023-01-09T09:22:44.940Z,7.75
2023-01-09T09:25:50.459Z,8.25
2023-01-09T09:28:55.691Z,7.43
2023-01-09T09:32:03.879Z,7.55
2023-01-09T09:35:09.999Z,8.27
2023-01-09T09:38:15.323Z,7.80
2023-01-09T09:41:39.877Z,7.97
2023-01-09T09:44:54.686Z,8.30
2023-01-09T09:48:10.023Z,7.80
2023-01-09T09:51:20.609Z,7.13
2023-01-09T09:54:29.831Z,7.85
2023-01-09T09:57:37.524Z,9.18
2023-01-09T10:00:43.000Z,8.48
2023-01-09T10:03:52.175Z,9.38
2023-01-09T10:07:00.156Z,9.85
2023-01-09T10:10:06.472Z,8.98
2023-01-09T10:13:24.512Z,9.07
2023-01-09T10:16:36.391Z,9.55
2023-01-09T10:19:52.932Z,9.18
2023-01-09T10:23:03.632Z,9.82
2023-01-09T10:26:13.267Z,9.30
2023-01-09T10:29:43.160Z,9.65
2023-01-09T10:32:56.643Z,9.25
2023-01-09T10:36:21.991Z,8.02
2023-01-09T10:39:29.542Z,7.18
2023-01-09T10:42:38.246Z,8.70
2023-01-09T10:45:47.338Z,8.32
2023-01-09T10:48:55.207Z,7.63
2023-01-09T10:52:07.808Z,7.68
2023-01-09T10:55:20.210Z,8.75
2023-01-09T10:58:26.238Z,7.38
2023-01-09T11:01:32.739Z,6.07
2023-01-09T11:04:40.688Z,8.27
2023-01-09T11:07:49.646Z,7.65
2023-01-09T11:10:56.051Z,7.95
2023-01-09T11:14:07.307Z,7.68
2023-01-09T11:17:20.847Z,7.85
2023-01-09T11:20:28.566Z,8.18
2023-01-09T11:23:36.822Z,8.32
2023-01-09T11:26:42.393Z,8.38
2023-01-09T11:29:47.952Z,8.57
2023-01-09T11:32:53.477Z,9.38
2023-01-09T11:36:00.714Z,9.07
2023-01-09T11:39:08.700Z,8.43
2023-01-09T11:42:42.770Z,7.95
2023-01-09T11:46:00.642Z,9.45
2023-01-09T11:49:07.860Z,9.07
2023-01-09T11:52:19.840Z,9.02
2023-01-09T11:55:34.839Z,8.30
2023-01-09T11:58:47.153Z,8.77
2023-01-09T12:02:07.347Z,8.60
2023-01-09T12:05:18.706Z,7.38
2023-01-09T12:08:31.179Z,8.43
2023-01-09T12:11:42.110Z,7.60
2023-01-09T12:14:52.144Z,7.53
2023-01-09T12:18:14.054Z,8.32
2023-01-09T12:21:28.597Z,8.05
2023-01-09T12:24:48.572Z,7.72
2023-01-09T12:28:02.728Z,8.45
2023-01-09T12:31:16.074Z,8.25
2023-01-09T12:34:29.418Z,7.60
2023-01-09T12:37:55.293Z,7.32
2023-01-09T12:41:11.414Z,8.23
2023-01-09T12:44:35.591Z,8.27
2023-01-09T12:47:46.218Z,7.82
2023-01-09T12:51:03.430Z,7.35
2023-01-09T12:54:12.468Z,7.45
2023-01-09T12:57:22.620Z,7.28
2023-01-09T13:00:31.875Z,7.07
2023-01-09T13:03:39.927Z,6.43
2023-01-09T13:06:49.238Z,6.80
2023-01-09T13:09:59.757Z,7.38
2023-01-09T13:13:09.711Z,7.93
2023-01-09T13:16:19.450Z,7.20
2023-01-09T13:19:27.813Z,7.30
2023-01-09T13:22:33.126Z,7.25
2023-01-09T13:25:46.971Z,7.75
2023-01-09T13:28:54.230Z,6.53
2023-01-09T13:32:08.861Z,6.70
2023-01-09T13:35:18.656Z,6.93
2023-01-09T13:38:25.276Z,6.63
2023-01-09T13:41:45.802Z,7.03
2023-01-09T13:44:53.254Z,6.22
2023-01-09T13:48:18.111Z,6.63
2023-01-09T13:51:44.271Z,7.40
2023-01-09T13:55:19.246Z,7.13
2023-01-09T13:58:28.014Z,6.75
2023-01-09T14:01:43.645Z,6.80
2023-01-09T14:04:49.081Z,6.80
2023-01-09T14:07:55.718Z,7.30
2023-01-09T14:11:02.232Z,6.53
2023-01-09T14:14:18.735Z,6.22
2023-01-09T14:17:28.983Z,7.22
2023-01-09T14:20:39.267Z,6.97
2023-01-09T14:23:53.759Z,6.10
2023-01-09T14:27:00.825Z,7.07
2023-01-09T14:30:21.819Z,7.78
2023-01-09T14:33:33.300Z,6.88
2023-01-09T14:36:39.308Z,6.25
2023-01-09T14:39:47.750Z,6.38
2023-01-09T14:42:55.677Z,6.93
2023-01-09T14:46:02.919Z,7.25
2023-01-09T14:49:17.972Z,7.60
2023-01-09T14:52:25.359Z,7.07
2023-01-09T14:55:33.194Z,6.82
2023-01-09T14:58:39.508Z,6.50
2023-01-09T15:01:47.220Z,8.00
2023-01-09T15:08:01.717Z,6.63
2023-01-09T15:11:07.399Z,8.15
2023-01-09T15:14:20.667Z,7.88
2023-01-09T15:17:28.294Z,7.68
2023-01-09T15:23:41.568Z,8.00
2023-01-09T15:26:54.673Z,7.70
2023-01-09T15:29:59.974Z,8.10
2023-01-09T15:33:08.709Z,9.50
2023-01-09T15:36:16.127Z,8.57
2023-01-09T15:42:42.556Z,8.65
2023-01-09T15:45:48.537Z,8.80
2023-01-09T15:48:56.720Z,7.43
2023-01-09T15:52:02.038Z,8.20
2023-01-09T15:55:18.625Z,7.95
2023-01-09T15:58:31.399Z,8.15
2023-01-09T16:01:37.835Z,8.63
2023-01-09T16:04:44.330Z,8.48
2023-01-09T16:07:50.074Z,7.68
2023-01-09T16:10:56.888Z,7.97
2023-01-09T16:14:07.429Z,9.27
2023-01-09T16:17:18.343Z,8.50
2023-01-09T16:20:28.024Z,8.65
2023-01-09T16:23:34.271Z,7.93
2023-01-09T16:26:40.012Z,8.27
2023-01-09T16:29:51.669Z,8.90
2023-01-09T16:32:57.381Z,7.70
2023-01-09T16:36:03.607Z,8.77
2023-01-09T16:39:11.171Z,8.13
2023-01-09T16:42:29.009Z,7.75
2023-01-09T16:45:40.804Z,7.43
2023-01-09T16:48:46.570Z,6.85
2023-01-09T16:51:52.227Z,6.72
2023-01-09T16:54:57.943Z,7.07
2023-01-09T16:58:04.539Z,6.90
2023-01-09T17:01:13.813Z,6.25
2023-01-09T17:04:20.798Z,6.70
2023-01-09T17:07:28.095Z,6.43
2023-01-09T17:10:33.643Z,6.60
2023-01-09T17:13:39.323Z,6.15
2023-01-09T17:16:49.044Z,6.20
2023-01-09T17:19:54.541Z,6.30
2023-01-09T17:23:00.019Z,6.30
2023-01-09T17:26:18.282Z,6.15
2023-01-09T17:29:24.220Z,6.28
2023-01-09T17:32:33.241Z,7.00
2023-01-09T17:35:39.158Z,6.60
2023-01-09T17:38:44.473Z,5.18
2023-01-09T17:41:50.333Z,5.95
2023-01-09T17:44:56.774Z,5.78
2023-01-09T17:48:04.682Z,5.57
2023-01-09T17:51:10.045Z,6.28
2023-01-09T17:54:19.223Z,6.38
2023-01-09T17:57:25.550Z,5.70
2023-01-09T18:00:33.238Z,6.20
2023-01-09T18:03:41.239Z,5.85
2023-01-09T18:06:48.511Z,5.90
2023-01-09T18:09:53.754Z,4.82
2023-01-09T18:12:59.745Z,6.45
2023-01-09T18:16:05.448Z,5.68
2023-01-09T18:19:14.006Z,4.93
2023-01-09T18:22:19.464Z,5.88
2023-01-09T18:25:25.104Z,5.00
2023-01-09T18:28:31.209Z,5.43
2023-01-09T18:31:36.831Z,5.30
2023-01-09T18:34:44.708Z,5.20
2023-01-09T18:37:50.426Z,5.55
2023-01-09T18:41:01.384Z,5.55
2023-01-09T18:44:06.699Z,5.28
2023-01-09T18:47:12.708Z,5.47
2023-01-09T18:50:20.891Z,5.22
2023-01-09T18:53:26.255Z,4.90
2023-01-09T18:56:31.756Z,5.05
2023-01-09T18:59:37.269Z,5.47
2023-01-09T19:02:42.875Z,4.70
2023-01-09T19:05:51.102Z,5.28
2023-01-09T19:08:57.909Z,4.85
2023-01-09T19:12:02.979Z,6.17
2023-01-09T19:15:11.948Z,5.00
2023-01-09T19:18:18.208Z,4.22
2023-01-09T19:21:27.092Z,4.90
2023-01-09T19:24:33.205Z,5.20
2023-01-09T19:27:38.849Z,4.88
2023-01-09T19:30:44.244Z,4.63
2023-01-09T19:33:49.826Z,4.80
2023-01-09T19:36:57.745Z,4.50
2023-01-09T19:40:03.066Z,4.43
2023-01-09T19:43:08.984Z,4.90
2023-01-09T19:46:16.626Z,5.05
2023-01-09T19:49:22.308Z,4.97
2023-01-09T19:52:30.189Z,4.72
2023-01-09T19:55:36.357Z,4.85
2023-01-09T19:58:41.996Z,5.78
2023-01-09T20:01:48.230Z,6.25
2023-01-09T20:04:53.738Z,4.80
2023-01-09T20:08:03.769Z,5.40
2023-01-09T20:11:09.595Z,5.07
2023-01-09T20:14:16.096Z,5.45
2023-01-09T20:17:21.470Z,5.30
2023-01-09T20:20:26.979Z,5.35
2023-01-09T20:23:36.374Z,4.85
2023-01-09T20:26:42.564Z,5.18
2023-01-09T20:29:48.220Z,5.18
2023-01-09T20:32:54.209Z,4.95
2023-01-09T20:36:03.699Z,4.70
2023-01-09T20:39:13.363Z,5.32
2023-01-09T20:42:18.599Z,5.45
2023-01-09T20:45:24.297Z,4.47
2023-01-09T20:48:29.832Z,5.35
2023-01-09T20:51:36.014Z,4.65
2023-01-09T20:54:45.564Z,5.38
2023-01-09T20:57:51.111Z,5.22
2023-01-09T21:00:56.319Z,5.63
2023-01-09T21:04:03.487Z,4.57
2023-01-09T21:07:11.036Z,5.18
2023-01-09T21:10:19.203Z,4.47
2023-01-09T21:13:24.609Z,4.68
2023-01-09T21:16:30.535Z,5.45
2023-01-09T21:19:36.166Z,5.57
2023-01-09T21:22:41.463Z,5.70
2023-01-09T21:25:49.489Z,5.78
2023-01-09T21:28:55.346Z,6.50
2023-01-09T21:32:01.059Z,6.90
2023-01-09T21:35:07.327Z,7.75
2023-01-09T21:38:12.672Z,8.57
2023-01-09T21:41:34.018Z,7.80
2023-01-09T21:44:51.637Z,9.77
2023-01-09T21:47:57.008Z,8.40
2023-01-09T21:51:05.218Z,8.65
2023-01-09T21:54:11.046Z,7.97
2023-01-09T21:57:19.111Z,8.05
2023-01-09T22:00:28.075Z,8.45
2023-01-09T22:03:33.641Z,7.68
2023-01-09T22:06:38.985Z,7.18
2023-01-09T22:09:44.774Z,6.07
2023-01-09T22:13:07.464Z,6.55
2023-01-09T22:16:13.240Z,6.20
2023-01-09T22:19:20.671Z,5.95
2023-01-09T22:22:26.377Z,5.82
2023-01-09T22:25:31.571Z,5.78
2023-01-09T22:28:39.518Z,6.43
2023-01-09T22:31:45.290Z,6.00
2023-01-09T22:34:50.914Z,5.05
2023-01-09T22:37:56.390Z,5.50
2023-01-09T22:41:01.599Z,5.13
2023-01-09T22:44:09.856Z,4.85
2023-01-09T22:47:15.495Z,4.57
2023-01-09T22:50:20.856Z,5.45
2023-01-09T22:53:26.170Z,4.70
2023-01-09T22:56:32.457Z,5.50
2023-01-09T22:59:40.454Z,4.50
2023-01-09T23:02:45.757Z,4.40
2023-01-09T23:05:51.365Z,4.55
2023-01-09T23:08:56.596Z,5.07
2023-01-09T23:12:06.052Z,5.05
2023-01-09T23:15:13.993Z,4.38
2023-01-09T23:18:19.736Z,5.00
2023-01-09T23:21:24.986Z,3.78
2023-01-09T23:24:31.146Z,4.85
2023-01-09T23:27:36.662Z,4.22
2023-01-09T23:30:44.397Z,4.85
2023-01-09T23:33:49.753Z,4.82
2023-01-09T23:36:55.905Z,4.57
2023-01-09T23:40:01.428Z,3.92
2023-01-09T23:43:10.670Z,4.43
2023-01-09T23:46:18.854Z,4.57
2023-01-09T23:49:24.376Z,3.95
2023-01-09T23:52:29.613Z,4.40
2023-01-09T23:55:34.917Z,3.85
2023-01-09T23:58:40.494Z,4.57
